Time;durP1;ratioP1;P1;durP2;ratioP2;P2;SDS_P1;SDS_P2;PMS_P1;PMS_P2;Temp;Humidity;BMP_temperature;BMP_pressure;BME280_temperature;BME280_humidity;BME280_pressure;Samples;Min_cycle;Max_cycle;Signal;HPM_P1;HPM_P2
2021/11/06 00:01:51;;;;;;;12.77;4.60;;;;;;;15.11;100.00;102596.00;5074111;28;20036;-59
2021/11/06 00:04:16;;;;;;;13.87;5.77;;;;;;;15.10;100.00;102588.94;5073518;28;20488;-59
2021/11/06 00:06:45;;;;;;;10.10;5.50;;;;;;;15.00;100.00;102581.13;5073782;28;20048;-58
2021/11/06 00:09:12;;;;;;;15.85;5.10;;;;;;;14.67;100.00;102582.19;5064303;28;20140;-58
2021/11/06 00:11:37;;;;;;;;;;;;;;;15.12;100.00;102586.91;5073995;28;20051;-59
2021/11/06 00:14:03;;;;;;;10.00;5.47;;;;;;;14.44;100.00;102592.97;5072887;28;19920;-59
2021/11/06 00:16:28;;;;;;;7.83;4.80;;;;;;;14.56;100.00;102593.41;5072632;28;20119;-59
2021/11/06 00:18:54;;;;;;;12.40;5.75;;;;;;;14.73;100.00;102581.50;5061491;28;20057;-59
2021/11/06 00:21:19;;;;;;;9.10;4.77;;;;;;;14.64;100.00;102574.50;5066048;28;20063;-59
2021/11/06 00:23:45;;;;;;;11.23;4.95;;;;;;;14.27;100.00;102582.31;5071816;28;20068;-58
2021/11/06 00:26:11;;;;;;;12.27;5.53;;;;;;;14.58;100.00;102586.81;5071897;28;20087;-58
2021/11/06 00:28:36;;;;;;;11.07;5.77;;;;;;;14.57;100.00;102584.31;5073073;28;20115;-59
2021/11/06 00:31:02;;;;;;;12.97;5.57;;;;;;;14.93;100.00;102583.69;5071579;28;20044;-58
2021/11/06 00:33:27;;;;;;;12.23;7.03;;;;;;;14.99;100.00;102574.06;5071093;28;20481;-59
2021/11/06 00:35:53;;;;;;;13.90;5.60;;;;;;;14.71;100.00;102580.84;5073191;28;20033;-59
2021/11/06 00:38:18;;;;;;;17.15;5.88;;;;;;;14.80;100.00;102580.81;5071337;28;20047;-58
2021/11/06 00:40:44;;;;;;;16.60;5.63;;;;;;;14.76;100.00;102575.78;5069890;28;20056;-58
2021/11/06 00:43:09;;;;;;;17.00;6.10;;;;;;;14.99;100.00;102574.06;5072283;28;20058;-60
2021/11/06 00:45:35;;;;;;;18.37;6.97;;;;;;;15.00;100.00;102578.44;5072195;28;20644;-60
2021/11/06 00:48:00;;;;;;;11.50;5.80;;;;;;;15.15;100.00;102579.31;5071627;28;20040;-57
2021/11/06 00:50:26;;;;;;;11.37;5.97;;;;;;;15.20;100.00;102571.50;5072667;28;20048;-59
2021/11/06 00:52:53;;;;;;;12.40;6.10;;;;;;;14.72;100.00;102576.31;5072315;28;20464;-59
2021/11/06 00:55:21;;;;;;;14.20;5.80;;;;;;;14.95;100.00;102565.50;5072427;28;20346;-59
2021/11/06 00:57:48;;;;;;;16.48;6.40;;;;;;;15.01;100.00;102586.34;5072910;28;20094;-58
2021/11/06 01:00:15;;;;;;;18.05;6.10;;;;;;;14.96;100.00;102580.66;5071467;28;20045;-58
2021/11/06 01:02:41;;;;;;;10.55;5.93;;;;;;;15.25;100.00;102575.50;5072112;28;20040;-59
2021/11/06 01:05:08;;;;;;;17.27;5.63;;;;;;;15.30;100.00;102578.47;5071615;28;20464;-58
2021/11/06 01:07:33;;;;;;;15.52;6.07;;;;;;;15.39;100.00;102584.63;5072588;28;20037;-58
2021/11/06 01:09:59;;;;;;;16.35;6.03;;;;;;;15.67;100.00;102589.34;5072795;28;20458;-58
2021/11/06 01:12:24;;;;;;;19.67;6.83;;;;;;;15.31;100.00;102585.53;5071402;28;20040;-58
2021/11/06 01:14:50;;;;;;;12.13;5.97;;;;;;;15.30;100.00;102590.09;5071552;28;20049;-58
2021/11/06 01:17:16;;;;;;;15.48;6.00;;;;;;;15.34;100.00;102580.63;5072351;28;20296;-58
2021/11/06 01:19:42;;;;;;;13.30;5.97;;;;;;;15.53;100.00;102586.50;5072531;28;20059;-60
2021/11/06 01:22:07;;;;;;;14.38;6.57;;;;;;;15.38;100.00;102574.84;5071697;28;20266;-57
2021/11/06 01:24:33;;;;;;;15.73;6.30;;;;;;;15.26;100.00;102582.56;5071804;28;20048;-58
2021/11/06 01:26:59;;;;;;;11.47;6.10;;;;;;;15.44;100.00;102568.72;5071798;28;20052;-59
2021/11/06 01:29:24;;;;;;;14.88;7.28;;;;;;;14.99;100.00;102571.38;5070561;28;20261;-58
2021/11/06 01:31:50;;;;;;;16.77;6.43;;;;;;;15.19;100.00;102574.38;5071982;28;20036;-58
2021/11/06 01:34:16;;;;;;;16.50;6.68;;;;;;;15.29;100.00;102572.25;5070200;28;20316;-59
2021/11/06 01:36:41;;;;;;;17.48;7.75;;;;;;;14.87;100.00;102576.34;5071600;28;20037;-59
2021/11/06 01:39:07;;;;;;;15.50;7.13;;;;;;;15.24;100.00;102579.22;5071573;28;20032;-58
2021/11/06 01:41:34;;;;;;;12.50;6.80;;;;;;;14.98;100.00;102581.28;5071933;28;20417;-58
2021/11/06 01:44:00;;;;;;;13.32;6.10;;;;;;;14.17;100.00;102577.16;5072090;28;20032;-59
2021/11/06 01:46:25;;;;;;;9.85;6.57;;;;;;;14.49;100.00;102572.56;5070216;28;20492;-59
2021/11/06 01:48:51;;;;;;;14.53;7.07;;;;;;;14.69;100.00;102574.78;5072188;28;20044;-58
2021/11/06 01:51:16;;;;;;;14.63;7.50;;;;;;;14.69;100.00;102566.69;5071582;28;20665;-59
2021/11/06 01:53:42;;;;;;;14.80;7.47;;;;;;;14.59;100.00;102563.44;5070734;28;20414;-59
2021/11/06 01:56:08;;;;;;;13.70;6.80;;;;;;;14.48;100.00;102565.50;5071381;28;20476;-58
2021/11/06 01:58:34;;;;;;;17.75;7.95;;;;;;;15.12;100.00;102565.34;5074466;28;20401;-58
2021/11/06 02:01:00;;;;;;;17.33;7.30;;;;;;;14.84;100.00;102560.56;5075032;28;20040;-59
2021/11/06 02:03:26;;;;;;;21.73;7.60;;;;;;;15.09;100.00;102565.72;5066005;28;20417;-59
2021/11/06 02:05:51;;;;;;;14.38;7.47;;;;;;;15.40;100.00;102562.03;5072234;28;20032;-58
2021/11/06 02:08:18;;;;;;;23.23;9.05;;;;;;;14.88;100.00;102559.19;5074810;28;20103;-59
2021/11/06 02:10:45;;;;;;;18.63;8.00;;;;;;;14.69;100.00;102555.94;5061823;28;20086;-58
2021/11/06 02:13:11;;;;;;;18.80;7.75;;;;;;;14.90;100.00;102559.81;5067253;28;20045;-57
2021/11/06 02:15:37;;;;;;;18.25;8.90;;;;;;;14.49;100.00;102572.56;5073454;28;20090;-58
2021/11/06 02:18:04;;;;;;;25.42;9.85;;;;;;;14.95;100.00;102567.38;5053575;28;20127;-59
2021/11/06 02:20:29;;;;;;;21.40;9.45;;;;;;;14.66;100.00;102567.06;5054856;28;20045;-59
2021/11/06 02:22:55;;;;;;;22.73;8.90;;;;;;;14.63;100.00;102573.63;5054985;28;20116;-59
2021/11/06 02:25:21;;;;;;;23.13;9.82;;;;;;;14.55;100.00;102570.19;5054354;28;20073;-58
2021/11/06 02:27:47;;;;;;;28.77;10.38;;;;;;;14.61;100.00;102570.28;5057606;28;20117;-58
2021/11/06 02:30:15;;;;;;;21.80;8.73;;;;;;;14.80;100.00;102561.94;5072977;28;20033;-58
2021/11/06 02:32:41;;;;;;;27.92;10.25;;;;;;;14.84;100.00;102574.03;5074779;28;20087;-59
2021/11/06 02:35:07;;;;;;;28.00;10.13;;;;;;;14.67;100.00;102566.06;5074675;28;20243;-58
2021/11/06 02:37:33;;;;;;;33.40;11.43;;;;;;;14.69;100.00;102564.00;5074196;28;20085;-58
2021/11/06 02:39:59;;;;;;;36.72;12.32;;;;;;;14.49;100.00;102577.13;5074468;28;20390;-59
2021/11/06 02:42:24;;;;;;;34.53;10.75;;;;;;;14.81;100.00;102563.63;5073303;28;20059;-58
2021/11/06 02:44:50;;;;;;;31.67;11.53;;;;;;;14.87;100.00;102570.97;5052953;28;20412;-59
2021/11/06 02:47:15;;;;;;;41.65;13.88;;;;;;;14.96;100.00;102575.25;5054406;28;20040;-58
2021/11/06 02:49:41;;;;;;;32.07;10.40;;;;;;;14.41;100.00;102586.09;5054151;28;20403;-59
2021/11/06 02:52:07;;;;;;;33.60;11.10;;;;;;;14.57;100.00;102581.63;5054587;28;20282;-58
2021/11/06 02:54:33;;;;;;;37.08;11.73;;;;;;;14.83;100.00;102575.88;5052527;28;20047;-59
2021/11/06 02:56:59;;;;;;;35.22;12.23;;;;;;;14.72;100.00;102573.63;5054026;28;20045;-59
2021/11/06 02:59:25;;;;;;;42.85;12.20;;;;;;;14.77;100.00;102576.59;5053759;28;20091;-59
2021/11/06 03:01:51;;;;;;;37.05;12.88;;;;;;;14.68;100.00;102570.41;5054033;28;20037;-58
2021/11/06 03:04:17;;;;;;;31.40;11.90;;;;;;;14.38;100.00;102570.31;5053745;28;20060;-58
2021/11/06 03:06:43;;;;;;;39.08;12.48;;;;;;;14.33;100.00;102573.53;5054224;28;20041;-58
2021/11/06 03:09:10;;;;;;;31.05;11.95;;;;;;;14.54;100.00;102561.25;5053766;28;20396;-58
2021/11/06 03:11:37;;;;;;;29.05;11.63;;;;;;;14.39;100.00;102561.22;5053091;28;20045;-60
2021/11/06 03:14:04;;;;;;;33.90;12.80;;;;;;;14.94;100.00;102547.66;5053226;28;20415;-59
2021/11/06 03:16:30;;;;;;;33.80;11.52;;;;;;;15.55;100.00;102560.19;5036033;28;20527;-59
2021/11/06 03:18:56;;;;;;;36.72;12.90;;;;;;;15.12;100.00;102559.97;5054099;28;20127;-59
2021/11/06 03:21:21;;;;;;;37.00;11.13;;;;;;;14.62;100.00;102557.69;5052319;28;20382;-58
2021/11/06 03:23:48;;;;;;;29.02;11.13;;;;;;;14.49;100.00;102555.59;5069201;28;20040;-58
2021/11/06 03:26:13;;;;;;;33.38;11.23;;;;;;;14.41;100.00;102552.94;5052851;28;20041;-59
2021/11/06 03:28:39;;;;;;;25.55;10.50;;;;;;;14.58;100.00;102543.72;5052802;28;20090;-58
2021/11/06 03:31:05;;;;;;;31.42;10.90;;;;;;;14.14;100.00;102552.44;5054382;28;20457;-58
2021/11/06 03:33:31;;;;;;;29.80;11.57;;;;;;;14.51;100.00;102541.94;5051817;28;20104;-59
2021/11/06 03:35:56;;;;;;;28.02;10.73;;;;;;;15.03;100.00;102538.50;5053920;28;20037;-59
2021/11/06 03:38:22;;;;;;;25.40;10.77;;;;;;;14.73;100.00;102538.41;5053869;28;20095;-58
2021/11/06 03:40:48;;;;;;;32.35;11.80;;;;;;;14.55;100.00;102540.59;5054338;28;20048;-59
2021/11/06 03:43:14;;;;;;;33.40;11.38;;;;;;;14.22;100.00;102543.50;5053222;28;20131;-58
2021/11/06 03:45:40;;;;;;;30.15;11.95;;;;;;;14.42;100.00;102533.94;5053352;28;20489;-59
2021/11/06 03:48:05;;;;;;;28.15;10.80;;;;;;;14.68;100.00;102532.72;5051967;28;20178;-58
2021/11/06 03:50:31;;;;;;;32.77;9.87;;;;;;;14.90;100.00;102543.66;5053114;28;20045;-59
2021/11/06 03:52:56;;;;;;;26.50;11.77;;;;;;;15.08;100.00;102545.19;5051602;28;20041;-58
2021/11/06 03:55:22;;;;;;;31.63;11.50;;;;;;;14.93;100.00;102540.59;5052680;28;20115;-58
2021/11/06 03:57:47;;;;;;;25.65;10.32;;;;;;;15.09;100.00;102545.00;5053067;28;20048;-61
2021/11/06 04:00:15;;;;;;;23.63;10.33;;;;;;;15.11;100.00;102540.28;5053159;28;20120;-59
2021/11/06 04:02:42;;;;;;;28.20;11.57;;;;;;;15.24;100.00;102542.34;5053090;28;20048;-58
2021/11/06 04:05:08;;;;;;;;;;;;;;;15.02;100.00;102546.75;5052201;28;20140;-58
2021/11/06 04:07:33;;;;;;;22.95;10.00;;;;;;;14.20;100.00;102547.19;5051471;28;20009;-59
2021/11/06 04:09:59;;;;;;;34.17;11.83;;;;;;;14.34;100.00;102542.06;5052845;28;20481;-59
2021/11/06 04:12:24;;;;;;;25.80;11.50;;;;;;;14.61;100.00;102537.16;5052541;28;20041;-57
2021/11/06 04:14:50;;;;;;;31.47;11.33;;;;;;;14.59;100.00;102541.88;5052513;28;20136;-58
2021/11/06 04:17:15;;;;;;;37.90;12.77;;;;;;;14.64;100.00;102558.34;5052489;28;20033;-59
2021/11/06 04:19:41;;;;;;;35.27;12.50;;;;;;;14.98;100.00;102543.56;5052295;28;20404;-60
2021/11/06 04:22:06;;;;;;;37.53;12.47;;;;;;;14.60;100.00;102546.25;5053228;28;20281;-58
2021/11/06 04:24:32;;;;;;;28.88;10.65;;;;;;;14.21;100.00;102558.81;5066860;28;20148;-57
2021/11/06 04:26:58;;;;;;;28.05;11.90;;;;;;;14.72;100.00;102547.50;5072606;28;20044;-57
2021/11/06 04:29:23;;;;;;;30.23;12.30;;;;;;;14.49;100.00;102544.81;5073322;28;20040;-57
2021/11/06 04:31:49;;;;;;;32.53;12.27;;;;;;;14.32;100.00;102546.81;5072786;28;20039;-58
2021/11/06 04:34:15;;;;;;;31.07;11.83;;;;;;;14.88;100.00;102551.09;5070778;28;20052;-59
2021/11/06 04:36:41;;;;;;;30.38;12.30;;;;;;;14.91;100.00;102545.34;5072357;28;20121;-58
2021/11/06 04:39:07;;;;;;;41.38;13.98;;;;;;;14.60;100.00;102546.25;5073103;28;20103;-58
2021/11/06 04:41:32;;;;;;;30.63;13.77;;;;;;;14.65;100.00;102553.78;5072435;28;20043;-58
2021/11/06 04:43:58;;;;;;;28.58;12.25;;;;;;;14.74;100.00;102541.97;5072444;28;20108;-59
2021/11/06 04:46:25;;;;;;;41.67;12.98;;;;;;;14.68;100.00;102548.88;5072218;28;20044;-57
2021/11/06 04:48:50;;;;;;;;;;;;;;;15.22;100.00;102544.34;5072995;28;20082;-59
2021/11/06 04:51:16;;;;;;;27.27;11.87;;;;;;;15.00;100.00;102540.72;5071163;28;19916;-60
2021/11/06 04:53:41;;;;;;;26.60;11.97;;;;;;;15.21;100.00;102539.97;5072640;28;20484;-59
2021/11/06 04:56:07;;;;;;;35.13;13.02;;;;;;;14.79;100.00;102544.13;5072989;28;20396;-59
2021/11/06 04:58:32;;;;;;;33.83;13.43;;;;;;;14.90;100.00;102540.97;5072628;28;20040;-59
2021/11/06 05:00:58;;;;;;;36.80;12.53;;;;;;;14.89;100.00;102528.53;5072666;28;20051;-59
2021/11/06 05:03:23;;;;;;;40.77;13.37;;;;;;;15.30;100.00;102535.34;5072217;28;20065;-58
2021/11/06 05:05:49;;;;;;;33.87;14.50;;;;;;;14.74;100.00;102531.19;5071559;28;20045;-60
2021/11/06 05:08:14;;;;;;;35.67;14.83;;;;;;;15.51;100.00;102525.66;5071393;28;20056;-59
2021/11/06 05:10:40;;;;;;;32.50;12.23;;;;;;;15.11;100.00;102532.19;5072687;28;20043;-59
2021/11/06 05:13:07;;;;;;;32.33;12.87;;;;;;;14.55;100.00;102532.50;5073384;28;20123;-59
2021/11/06 05:15:32;;;;;;;36.70;13.48;;;;;;;14.68;100.00;102527.34;5071376;28;20289;-59
2021/11/06 05:17:58;;;;;;;31.83;13.15;;;;;;;14.71;100.00;102542.34;5071610;28;20048;-58
2021/11/06 05:20:24;;;;;;;35.30;14.40;;;;;;;14.85;100.00;102533.44;5071158;28;20048;-59
2021/11/06 05:22:50;;;;;;;32.88;15.27;;;;;;;14.86;100.00;102535.09;5072014;28;20043;-58
2021/11/06 05:25:15;;;;;;;26.87;12.70;;;;;;;14.92;100.00;102538.94;5070959;28;20044;-59
2021/11/06 05:27:41;;;;;;;32.70;13.95;;;;;;;14.58;100.00;102537.53;5071894;28;20285;-59
2021/11/06 05:30:09;;;;;;;31.47;13.80;;;;;;;15.43;100.00;102540.09;5076025;28;20464;-58
2021/11/06 05:32:36;;;;;;;33.88;13.20;;;;;;;15.49;100.00;102528.56;5080048;28;20040;-59
2021/11/06 05:35:03;;;;;;;32.65;13.63;;;;;;;14.80;100.00;102530.44;5076662;28;20056;-59
2021/11/06 05:37:29;;;;;;;32.13;13.60;;;;;;;15.31;100.00;102528.94;5076317;28;20036;-57
2021/11/06 05:39:54;;;;;;;29.40;14.18;;;;;;;14.84;100.00;102529.06;5075664;28;20051;-59
2021/11/06 05:42:20;;;;;;;32.28;14.65;;;;;;;15.31;100.00;102516.31;5076131;28;20032;-57
2021/11/06 05:44:46;;;;;;;35.05;13.63;;;;;;;14.67;100.00;102520.28;5075302;28;20064;-58
2021/11/06 05:47:11;;;;;;;42.42;16.02;;;;;;;15.03;100.00;102527.72;5075865;28;20445;-59
2021/11/06 05:49:37;;;;;;;35.33;15.13;;;;;;;14.83;100.00;102519.31;5073979;28;20048;-58
2021/11/06 05:52:03;;;;;;;28.10;13.80;;;;;;;14.98;100.00;102522.03;5066558;28;20036;-59
2021/11/06 05:54:29;;;;;;;29.80;13.25;;;;;;;15.01;100.00;102526.22;5075320;28;20384;-59
2021/11/06 05:56:55;;;;;;;30.92;13.27;;;;;;;14.64;100.00;102526.03;5073683;28;20123;-59
2021/11/06 05:59:21;;;;;;;27.67;13.75;;;;;;;15.06;100.00;102523.81;5056796;28;20090;-57
2021/11/06 06:01:47;;;;;;;31.42;14.52;;;;;;;15.14;100.00;102525.59;5074789;28;20067;-59
2021/11/06 06:04:12;;;;;;;26.48;13.70;;;;;;;14.68;100.00;102521.94;5055623;28;20076;-58
2021/11/06 06:06:38;;;;;;;36.63;14.67;;;;;;;15.33;100.00;102530.44;5054766;28;20128;-59
2021/11/06 06:09:03;;;;;;;33.20;15.00;;;;;;;15.20;100.00;102530.22;5055226;28;20112;-58
2021/11/06 06:11:29;;;;;;;32.08;14.80;;;;;;;15.21;100.00;102521.13;5054130;28;20457;-59
2021/11/06 06:13:54;;;;;;;32.53;15.27;;;;;;;15.25;100.00;102532.38;5054574;28;20101;-60
2021/11/06 06:16:20;;;;;;;37.90;15.03;;;;;;;15.31;100.00;102537.88;5055050;28;20087;-59
2021/11/06 06:18:46;;;;;;;29.42;14.80;;;;;;;15.15;100.00;102528.09;5053261;28;20064;-59
2021/11/06 06:21:12;;;;;;;33.07;15.87;;;;;;;15.43;100.00;102532.84;5054592;28;20037;-59
2021/11/06 06:23:39;;;;;;;31.85;14.43;;;;;;;15.49;100.00;102548.28;5053464;28;20286;-58
2021/11/06 06:26:04;;;;;;;32.03;15.82;;;;;;;15.77;100.00;102542.19;5055164;28;20055;-59
2021/11/06 06:28:30;;;;;;;28.00;14.07;;;;;;;15.34;100.00;102550.97;5054370;28;20033;-58
2021/11/06 06:30:55;;;;;;;28.37;14.97;;;;;;;15.68;100.00;102545.19;5053140;28;20052;-59
2021/11/06 06:33:21;;;;;;;28.10;13.47;;;;;;;15.46;100.00;102548.66;5053357;28;20041;-59
2021/11/06 06:35:46;;;;;;;33.13;14.73;;;;;;;14.89;100.00;102540.16;5053204;28;20349;-58
2021/11/06 06:38:12;;;;;;;31.63;15.60;;;;;;;15.12;100.00;102533.03;5053775;28;20556;-58
2021/11/06 06:40:37;;;;;;;29.60;14.32;;;;;;;15.21;100.00;102542.69;5052774;28;20381;-58
2021/11/06 06:43:03;;;;;;;36.20;15.13;;;;;;;15.09;100.00;102545.00;5053912;28;20404;-58
2021/11/06 06:45:29;;;;;;;30.50;14.95;;;;;;;15.02;100.00;102533.28;5054546;28;20041;-60
2021/11/06 06:47:54;;;;;;;28.83;14.97;;;;;;;14.99;100.00;102529.13;5053880;28;20045;-59
2021/11/06 06:50:20;;;;;;;32.43;15.57;;;;;;;14.83;100.00;102546.25;5054528;28;20277;-60
2021/11/06 06:52:45;;;;;;;40.00;16.17;;;;;;;15.30;100.00;102544.28;5053949;28;20480;-59
2021/11/06 06:55:12;;;;;;;31.95;14.73;;;;;;;14.79;100.00;102538.72;5052799;28;20095;-59
2021/11/06 06:57:37;;;;;;;31.00;16.40;;;;;;;14.88;100.00;102548.41;5052720;28;20048;-58
2021/11/06 07:00:08;;;;;;;35.65;16.08;;;;;;;15.09;100.00;102533.38;5053861;28;20041;-59
2021/11/06 07:02:33;;;;;;;29.35;15.70;;;;;;;15.24;100.00;102536.09;5036309;28;20044;-59
2021/11/06 07:04:59;;;;;;;34.63;15.37;;;;;;;14.84;100.00;102537.16;5053883;28;20053;-58
2021/11/06 07:07:25;;;;;;;31.52;16.90;;;;;;;15.03;100.00;102543.88;5053906;28;20262;-58
2021/11/06 07:09:51;;;;;;;30.52;14.82;;;;;;;15.08;100.00;102543.31;5052191;28;20037;-59
2021/11/06 07:12:17;;;;;;;33.65;14.90;;;;;;;15.53;100.00;102548.75;5052747;28;20473;-58
2021/11/06 07:14:43;;;;;;;33.10;15.13;;;;;;;15.05;100.00;102541.84;5053716;28;20481;-60
2021/11/06 07:17:08;;;;;;;39.53;16.77;;;;;;;14.93;100.00;102551.38;5053753;28;20047;-59
2021/11/06 07:19:34;;;;;;;36.60;15.57;;;;;;;14.86;100.00;102553.13;5053889;28;20059;-59
2021/11/06 07:22:00;;;;;;;37.30;15.90;;;;;;;15.43;100.00;102554.41;5053567;28;20051;-59
2021/11/06 07:24:27;;;;;;;;;;;;;;;15.14;100.00;102544.44;5053212;28;20301;-59
2021/11/06 07:26:53;;;;;;;28.38;15.57;;;;;;;14.44;100.00;102545.34;5057812;28;19919;-58
2021/11/06 07:29:19;;;;;;;31.17;14.10;;;;;;;14.89;100.00;102539.31;5055272;28;20041;-59
2021/11/06 07:31:44;;;;;;;41.67;15.57;;;;;;;14.61;100.00;102537.97;5097030;28;20094;-57
2021/11/06 07:34:10;;;;;;;31.03;13.83;;;;;;;14.70;100.00;102533.38;5053186;28;20160;-59
2021/11/06 07:36:35;;;;;;;32.53;15.43;;;;;;;14.79;100.00;102542.25;5054796;28;20052;-59
2021/11/06 07:39:01;;;;;;;31.00;14.70;;;;;;;14.77;100.00;102531.69;5072205;28;20288;-58
2021/11/06 07:41:26;;;;;;;27.20;15.23;;;;;;;14.67;100.00;102539.13;5055892;28;20043;-60
2021/11/06 07:43:54;;;;;;;40.90;16.70;;;;;;;14.59;100.00;102545.41;5051791;28;20044;-59
2021/11/06 07:46:19;;;;;;;29.25;14.88;;;;;;;15.09;100.00;102546.88;5053435;28;20480;-59
2021/11/06 07:48:45;;;;;;;40.83;15.93;;;;;;;14.69;100.00;102544.34;5085675;28;20051;-59
2021/11/06 07:51:10;;;;;;;30.33;13.63;;;;;;;14.73;100.00;102546.50;5053339;28;20254;-58
2021/11/06 07:53:36;;;;;;;30.93;13.23;;;;;;;15.86;100.00;102561.81;5051668;28;20048;-59
2021/11/06 07:56:02;;;;;;;28.83;14.10;;;;;;;15.72;100.00;102554.59;5050805;28;20289;-59
2021/11/06 07:58:27;;;;;;;31.80;12.93;;;;;;;15.12;100.00;102557.28;5054039;28;20102;-59
2021/11/06 08:00:53;;;;;;;30.93;14.30;;;;;;;15.34;100.00;102561.75;5051504;28;20140;-58
2021/11/06 08:03:18;;;;;;;30.67;12.43;;;;;;;15.37;100.00;102563.25;5052897;28;20041;-58
2021/11/06 08:05:44;;;;;;;30.53;12.37;;;;;;;15.75;100.00;102562.31;5051404;28;20270;-57
2021/11/06 08:08:10;;;;;;;27.90;12.43;;;;;;;15.57;100.00;102558.13;5051521;28;20033;-58
2021/11/06 08:10:36;;;;;;;26.02;12.27;;;;;;;15.91;100.00;102554.03;5052635;28;20451;-58
2021/11/06 08:13:04;;;;;;;29.73;13.02;;;;;;;15.62;100.00;102552.19;5051162;28;20468;-58
2021/11/06 08:15:31;;;;;;;26.25;11.35;;;;;;;15.19;100.00;102545.56;5052519;28;20032;-59
2021/11/06 08:17:56;;;;;;;;;;;;;;;15.59;100.00;102547.16;5051796;28;20060;-59
2021/11/06 08:20:23;;;;;;;26.23;12.33;;;;;;;15.80;100.00;102535.59;5053196;28;20369;-59
2021/11/06 08:22:49;;;;;;;21.63;11.20;;;;;;;15.42;100.00;102547.34;5051680;28;20025;-59
2021/11/06 08:25:16;;;;;;;20.90;10.30;;;;;;;15.65;100.00;102538.31;5052137;28;20132;-60
2021/11/06 08:27:49;;;;;;;21.75;10.73;;;;;;;15.59;100.00;102550.69;5050954;28;20136;-59
2021/11/06 08:30:16;;;;;;;22.55;10.77;;;;;;;15.67;100.00;102540.81;5067876;28;20059;-59
2021/11/06 08:32:42;;;;;;;24.83;11.05;;;;;;;15.82;100.00;102538.94;5052446;28;20028;-58
2021/11/06 08:35:09;;;;;;;21.10;11.02;;;;;;;15.54;100.00;102553.13;5052270;28;20053;-59
2021/11/06 08:37:35;;;;;;;22.13;10.25;;;;;;;15.29;100.00;102534.53;5051238;28;20171;-59
2021/11/06 08:40:02;;;;;;;19.13;9.48;;;;;;;15.59;100.00;102550.69;5051869;28;20103;-59
2021/11/06 08:42:28;;;;;;;20.48;10.73;;;;;;;15.61;100.00;102535.16;5051126;28;20410;-58
2021/11/06 08:44:55;;;;;;;17.83;10.45;;;;;;;15.45;100.00;102533.50;5052188;28;20068;-57
2021/11/06 08:47:21;;;;;;;21.33;11.48;;;;;;;15.49;100.00;102524.00;5052174;28;20560;-58
2021/11/06 08:49:46;;;;;;;15.95;9.35;;;;;;;16.11;100.00;102526.41;5052324;28;20129;-58
2021/11/06 08:52:12;;;;;;;22.52;9.70;;;;;;;16.15;100.00;102532.28;5050728;28;20487;-59
2021/11/06 08:54:38;;;;;;;21.65;9.70;;;;;;;15.78;100.00;102533.06;5067563;28;20405;-59
2021/11/06 08:57:07;;;;;;;17.83;9.50;;;;;;;15.67;100.00;102532.72;5057201;28;20040;-57
2021/11/06 08:59:33;;;;;;;20.23;9.40;;;;;;;15.97;100.00;102528.13;5054075;28;20043;-59
2021/11/06 09:01:58;;;;;;;20.42;9.48;;;;;;;16.24;100.00;102541.09;5071367;28;20033;-60
2021/11/06 09:04:24;;;;;;;19.65;9.20;;;;;;;16.18;100.00;102530.03;5071730;28;20126;-58
2021/11/06 09:06:50;;;;;;;19.08;9.50;;;;;;;16.38;100.00;102531.25;5073335;28;20075;-56
2021/11/06 09:09:16;;;;;;;14.95;8.20;;;;;;;17.09;100.00;102541.22;5076230;28;20064;-58
2021/11/06 09:11:42;;;;;;;23.67;9.55;;;;;;;17.22;100.00;102531.53;5075786;28;20036;-59
2021/11/06 09:14:09;;;;;;;19.23;8.48;;;;;;;17.24;100.00;102530.28;5075188;28;20441;-59
2021/11/06 09:16:36;;;;;;;23.00;9.37;;;;;;;17.69;99.49;102542.56;5076213;28;20071;-59
2021/11/06 09:19:04;;;;;;;17.70;8.80;;;;;;;17.48;100.00;102538.94;5074850;28;20273;-58
2021/11/06 09:21:31;;;;;;;17.83;8.93;;;;;;;17.22;100.00;102531.53;5074934;28;20513;-59
2021/11/06 09:24:03;;;;;;;18.23;8.27;;;;;;;17.44;100.00;102529.56;5074330;28;20685;-58
2021/11/06 09:26:38;;;;;;;15.50;7.27;;;;;;;17.51;100.00;102535.00;5074451;28;20281;-59
2021/11/06 09:29:04;;;;;;;19.90;8.43;;;;;;;17.00;100.00;102540.53;5075721;28;20301;-59
2021/11/06 09:31:31;;;;;;;15.53;8.10;;;;;;;17.17;100.00;102529.41;5075306;28;20296;-60
2021/11/06 09:33:57;;;;;;;18.40;8.38;;;;;;;17.20;100.00;102529.88;5074226;28;20301;-58
2021/11/06 09:36:24;;;;;;;16.40;8.48;;;;;;;17.27;100.00;102534.47;5076003;28;20036;-58
2021/11/06 09:38:50;;;;;;;21.83;8.13;;;;;;;16.98;100.00;102536.34;5075719;28;20404;-59
2021/11/06 09:41:17;;;;;;;19.47;7.40;;;;;;;17.59;100.00;102538.38;5073897;28;20277;-57
2021/11/06 09:43:43;;;;;;;15.83;7.47;;;;;;;17.36;100.00;102540.56;5073867;28;20276;-59
2021/11/06 09:46:09;;;;;;;15.73;7.72;;;;;;;17.84;99.06;102545.13;5076023;28;20373;-59
2021/11/06 09:48:36;;;;;;;14.00;6.50;;;;;;;17.79;98.72;102537.63;5074762;28;20116;-59
2021/11/06 09:51:01;;;;;;;14.05;6.80;;;;;;;17.62;100.00;102527.16;5075310;28;20037;-58
2021/11/06 09:53:29;;;;;;;15.93;7.33;;;;;;;17.88;97.32;102531.00;5075447;28;20484;-59
2021/11/06 09:55:55;;;;;;;13.37;6.90;;;;;;;17.84;97.00;102534.31;5075252;28;20403;-57
2021/11/06 09:58:21;;;;;;;12.55;6.80;;;;;;;17.26;100.00;102528.22;5074861;28;20281;-60
2021/11/06 10:00:47;;;;;;;13.30;6.30;;;;;;;17.21;100.00;102527.97;5075450;28;20033;-59
2021/11/06 10:03:13;;;;;;;15.23;7.05;;;;;;;17.51;100.00;102530.41;5073690;28;20041;-60
2021/11/06 10:05:55;;;;;;;15.48;7.70;;;;;;;17.96;97.55;102534.56;5075387;28;20054;-58
2021/11/06 10:08:24;;;;;;;12.77;5.90;;;;;;;17.41;100.00;102525.38;5075398;28;20036;-58
2021/11/06 10:10:53;;;;;;;15.43;6.67;;;;;;;17.60;100.00;102526.53;5075161;28;20558;-59
2021/11/06 10:13:20;;;;;;;13.17;6.23;;;;;;;17.87;100.00;102525.78;5074496;28;20269;-59
2021/11/06 10:15:49;;;;;;;15.43;7.10;;;;;;;17.36;100.00;102527.03;5074931;28;20286;-59
2021/11/06 10:18:20;;;;;;;15.73;6.73;;;;;;;17.20;100.00;102520.91;5073792;28;20270;-58
2021/11/06 10:20:49;;;;;;;16.27;6.67;;;;;;;17.65;100.00;102517.81;5074900;28;20360;-60
2021/11/06 10:23:16;;;;;;;10.97;5.73;;;;;;;18.12;95.10;102525.28;5074865;28;20257;-59
2021/11/06 10:25:41;;;;;;;11.30;6.05;;;;;;;18.62;89.72;102514.91;5074929;28;20281;-59
2021/11/06 10:28:09;;;;;;;17.07;6.33;;;;;;;18.45;90.58;102514.50;5074131;28;20043;-58
2021/11/06 10:30:40;;;;;;;14.80;6.00;;;;;;;18.23;91.66;102523.84;5074871;28;20265;-58
2021/11/06 10:33:09;;;;;;;10.77;5.60;;;;;;;17.78;96.80;102517.03;5075144;28;20383;-58
2021/11/06 10:35:38;;;;;;;13.97;5.53;;;;;;;17.99;96.75;102515.19;5074816;28;20751;-59
2021/11/06 10:38:17;;;;;;;14.07;6.50;;;;;;;18.06;94.25;102502.56;5074726;28;20319;-57
2021/11/06 10:40:48;;;;;;;13.37;5.60;;;;;;;18.09;94.16;102512.13;5074141;28;20321;-58
2021/11/06 10:43:17;;;;;;;17.33;6.33;;;;;;;17.87;97.84;102504.97;5073735;28;20352;-58
2021/11/06 10:45:50;;;;;;;13.17;6.17;;;;;;;18.58;90.71;102500.13;5073326;28;20384;-58
2021/11/06 10:48:19;;;;;;;15.47;6.43;;;;;;;18.04;95.16;102501.94;5072830;28;20265;-59
2021/11/06 10:50:54;;;;;;;10.07;5.63;;;;;;;17.95;96.08;102503.09;5074052;28;20791;-59
2021/11/06 10:53:42;;;;;;;12.20;5.13;;;;;;;18.33;92.21;102502.59;5073806;28;20273;-58
2021/11/06 10:56:14;;;;;;;12.97;5.93;;;;;;;18.16;92.91;102488.63;5072509;28;20269;-59
2021/11/06 10:58:49;;;;;;;11.00;5.40;;;;;;;18.41;92.29;102486.13;5074324;28;20295;-59
2021/11/06 11:01:21;;;;;;;10.33;5.33;;;;;;;18.28;92.55;102480.72;5072578;28;20784;-58
2021/11/06 11:03:49;;;;;;;12.63;6.07;;;;;;;17.84;97.48;102474.78;5073878;28;20281;-59